sensor_id;sensor_type;location;lat;lon;timestamp;P1;durP1;ratioP1;P2;durP2;ratioP2
59115;SDS011;53564;51.930;4.640;2022-08-11T00:01:05;11.80;;;4.47;;
59115;SDS011;53564;51.930;4.640;2022-08-11T00:03:33;11.27;;;4.72;;
59115;SDS011;53564;51.930;4.640;2022-08-11T00:05:59;13.40;;;4.78;;
59115;SDS011;53564;51.930;4.640;2022-08-11T00:08:27;11.45;;;4.60;;
59115;SDS011;53564;51.930;4.640;2022-08-11T00:11:04;10.93;;;4.40;;
59115;SDS011;53564;51.930;4.640;2022-08-11T00:13:33;12.10;;;4.60;;
59115;SDS011;53564;51.930;4.640;2022-08-11T00:16:01;10.77;;;3.85;;
59115;SDS011;53564;51.930;4.640;2022-08-11T00:18:29;11.48;;;4.57;;
59115;SDS011;53564;51.930;4.640;2022-08-11T00:21:03;12.88;;;4.40;;
59115;SDS011;53564;51.930;4.640;2022-08-11T00:23:29;12.32;;;4.65;;
59115;SDS011;53564;51.930;4.640;2022-08-11T00:25:55;10.68;;;4.13;;
59115;SDS011;53564;51.930;4.640;2022-08-11T00:28:32;11.00;;;4.32;;
59115;SDS011;53564;51.930;4.640;2022-08-11T00:31:00;13.38;;;4.65;;
59115;SDS011;53564;51.930;4.640;2022-08-11T00:33:33;11.88;;;4.60;;
59115;SDS011;53564;51.930;4.640;2022-08-11T00:36:03;12.68;;;4.47;;
59115;SDS011;53564;51.930;4.640;2022-08-11T00:38:31;12.75;;;5.20;;
59115;SDS011;53564;51.930;4.640;2022-08-11T00:46:33;11.50;;;4.40;;
59115;SDS011;53564;51.930;4.640;2022-08-11T00:55:14;13.40;;;4.63;;
59115;SDS011;53564;51.930;4.640;2022-08-11T01:09:20;11.95;;;4.53;;
59115;SDS011;53564;51.930;4.640;2022-08-11T01:23:45;11.77;;;4.65;;
59115;SDS011;53564;51.930;4.640;2022-08-11T01:29:25;12.23;;;5.25;;
59115;SDS011;53564;51.930;4.640;2022-08-11T01:37:29;11.70;;;5.05;;
59115;SDS011;53564;51.930;4.640;2022-08-11T01:40:54;13.13;;;4.78;;
59115;SDS011;53564;51.930;4.640;2022-08-11T01:54:34;11.73;;;4.72;;
59115;SDS011;53564;51.930;4.640;2022-08-11T02:00:13;12.45;;;4.78;;
59115;SDS011;53564;51.930;4.640;2022-08-11T02:02:51;13.50;;;4.75;;
59115;SDS011;53564;51.930;4.640;2022-08-11T02:05:26;12.80;;;5.07;;
59115;SDS011;53564;51.930;4.640;2022-08-11T02:08:02;11.63;;;4.70;;
59115;SDS011;53564;51.930;4.640;2022-08-11T02:10:50;11.32;;;4.25;;
59115;SDS011;53564;51.930;4.640;2022-08-11T02:25:52;12.05;;;5.15;;
59115;SDS011;53564;51.930;4.640;2022-08-11T02:37:28;11.75;;;4.40;;
59115;SDS011;53564;51.930;4.640;2022-08-11T02:40:10;12.50;;;4.60;;
59115;SDS011;53564;51.930;4.640;2022-08-11T02:48:00;14.05;;;5.18;;
59115;SDS011;53564;51.930;4.640;2022-08-11T02:56:30;11.20;;;4.75;;
59115;SDS011;53564;51.930;4.640;2022-08-11T03:02:25;12.77;;;4.43;;
59115;SDS011;53564;51.930;4.640;2022-08-11T03:04:59;11.48;;;4.40;;
59115;SDS011;53564;51.930;4.640;2022-08-11T03:10:07;11.90;;;4.47;;
59115;SDS011;53564;51.930;4.640;2022-08-11T03:12:51;12.93;;;5.00;;
59115;SDS011;53564;51.930;4.640;2022-08-11T03:15:43;12.05;;;4.75;;
59115;SDS011;53564;51.930;4.640;2022-08-11T03:33:32;10.40;;;3.83;;
59115;SDS011;53564;51.930;4.640;2022-08-11T03:39:33;10.10;;;3.88;;
59115;SDS011;53564;51.930;4.640;2022-08-11T03:42:13;10.33;;;3.57;;
59115;SDS011;53564;51.930;4.640;2022-08-11T03:44:57;13.43;;;4.72;;
59115;SDS011;53564;51.930;4.640;2022-08-11T03:47:36;11.23;;;4.60;;
59115;SDS011;53564;51.930;4.640;2022-08-11T03:56:12;12.27;;;3.72;;
59115;SDS011;53564;51.930;4.640;2022-08-11T03:59:06;12.75;;;5.03;;
59115;SDS011;53564;51.930;4.640;2022-08-11T04:02:03;11.55;;;4.97;;
59115;SDS011;53564;51.930;4.640;2022-08-11T04:13:28;14.52;;;5.22;;
59115;SDS011;53564;51.930;4.640;2022-08-11T04:24:31;12.45;;;5.25;;
59115;SDS011;53564;51.930;4.640;2022-08-11T04:30:13;13.65;;;5.47;;
59115;SDS011;53564;51.930;4.640;2022-08-11T04:33:01;15.40;;;5.57;;
59115;SDS011;53564;51.930;4.640;2022-08-11T04:47:47;13.52;;;5.50;;
59115;SDS011;53564;51.930;4.640;2022-08-11T04:54:02;14.60;;;5.60;;
59115;SDS011;53564;51.930;4.640;2022-08-11T04:56:57;12.50;;;5.10;;
59115;SDS011;53564;51.930;4.640;2022-08-11T05:08:45;13.38;;;5.78;;
59115;SDS011;53564;51.930;4.640;2022-08-11T05:11:33;15.85;;;6.10;;
59115;SDS011;53564;51.930;4.640;2022-08-11T05:16:57;13.20;;;5.40;;
59115;SDS011;53564;51.930;4.640;2022-08-11T05:19:46;12.80;;;5.25;;
59115;SDS011;53564;51.930;4.640;2022-08-11T05:22:31;15.45;;;5.72;;
59115;SDS011;53564;51.930;4.640;2022-08-11T05:25:17;13.60;;;5.97;;
59115;SDS011;53564;51.930;4.640;2022-08-11T05:28:09;13.45;;;5.72;;
59115;SDS011;53564;51.930;4.640;2022-08-11T05:30:55;14.18;;;5.90;;
59115;SDS011;53564;51.930;4.640;2022-08-11T05:33:49;14.75;;;5.50;;
59115;SDS011;53564;51.930;4.640;2022-08-11T05:36:46;13.90;;;4.70;;
59115;SDS011;53564;51.930;4.640;2022-08-11T05:39:28;14.43;;;5.88;;
59115;SDS011;53564;51.930;4.640;2022-08-11T05:42:18;13.95;;;5.57;;
59115;SDS011;53564;51.930;4.640;2022-08-11T05:45:10;16.60;;;5.93;;
59115;SDS011;53564;51.930;4.640;2022-08-11T05:47:57;14.45;;;5.65;;
59115;SDS011;53564;51.930;4.640;2022-08-11T05:50:48;13.10;;;5.50;;
59115;SDS011;53564;51.930;4.640;2022-08-11T05:53:34;11.10;;;4.45;;
59115;SDS011;53564;51.930;4.640;2022-08-11T05:56:27;15.23;;;5.63;;
59115;SDS011;53564;51.930;4.640;2022-08-11T05:58:53;12.30;;;5.45;;
59115;SDS011;53564;51.930;4.640;2022-08-11T06:01:22;12.90;;;6.15;;
59115;SDS011;53564;51.930;4.640;2022-08-11T06:03:50;14.57;;;5.65;;
59115;SDS011;53564;51.930;4.640;2022-08-11T06:06:36;14.77;;;6.15;;
59115;SDS011;53564;51.930;4.640;2022-08-11T06:09:04;13.63;;;6.07;;
59115;SDS011;53564;51.930;4.640;2022-08-11T06:11:32;14.68;;;6.32;;
59115;SDS011;53564;51.930;4.640;2022-08-11T06:14:03;13.02;;;5.57;;
59115;SDS011;53564;51.930;4.640;2022-08-11T06:16:30;13.15;;;5.45;;
59115;SDS011;53564;51.930;4.640;2022-08-11T06:18:56;16.27;;;5.70;;
59115;SDS011;53564;51.930;4.640;2022-08-11T06:21:22;12.80;;;5.50;;
59115;SDS011;53564;51.930;4.640;2022-08-11T06:23:48;13.55;;;5.57;;
59115;SDS011;53564;51.930;4.640;2022-08-11T06:26:13;14.80;;;5.95;;
59115;SDS011;53564;51.930;4.640;2022-08-11T06:28:40;13.05;;;5.07;;
59115;SDS011;53564;51.930;4.640;2022-08-11T06:31:20;13.27;;;5.95;;
59115;SDS011;53564;51.930;4.640;2022-08-11T06:36:15;14.17;;;5.60;;
59115;SDS011;53564;51.930;4.640;2022-08-11T06:38:55;15.52;;;5.78;;
59115;SDS011;53564;51.930;4.640;2022-08-11T06:41:29;12.18;;;5.47;;
59115;SDS011;53564;51.930;4.640;2022-08-11T06:46:39;13.57;;;5.80;;
59115;SDS011;53564;51.930;4.640;2022-08-11T06:49:11;13.10;;;5.25;;
59115;SDS011;53564;51.930;4.640;2022-08-11T06:52:01;13.18;;;5.82;;
59115;SDS011;53564;51.930;4.640;2022-08-11T06:54:43;15.30;;;6.20;;
59115;SDS011;53564;51.930;4.640;2022-08-11T06:57:19;13.20;;;6.38;;
59115;SDS011;53564;51.930;4.640;2022-08-11T07:00:03;12.60;;;5.32;;
59115;SDS011;53564;51.930;4.640;2022-08-11T07:02:51;14.35;;;6.18;;
59115;SDS011;53564;51.930;4.640;2022-08-11T07:08:34;13.50;;;6.10;;
59115;SDS011;53564;51.930;4.640;2022-08-11T07:11:40;14.93;;;6.38;;
59115;SDS011;53564;51.930;4.640;2022-08-11T07:14:45;13.13;;;5.40;;
59115;SDS011;53564;51.930;4.640;2022-08-11T07:17:40;11.95;;;5.20;;
59115;SDS011;53564;51.930;4.640;2022-08-11T07:20:13;13.80;;;5.57;;
59115;SDS011;53564;51.930;4.640;2022-08-11T07:22:59;12.68;;;5.45;;
59115;SDS011;53564;51.930;4.640;2022-08-11T07:25:46;12.77;;;5.13;;
59115;SDS011;53564;51.930;4.640;2022-08-11T07:28:45;13.52;;;5.32;;
59115;SDS011;53564;51.930;4.640;2022-08-11T07:33:56;13.88;;;5.80;;
59115;SDS011;53564;51.930;4.640;2022-08-11T07:36:29;13.57;;;5.50;;
59115;SDS011;53564;51.930;4.640;2022-08-11T07:38:55;13.48;;;4.90;;
59115;SDS011;53564;51.930;4.640;2022-08-11T07:41:25;12.10;;;5.00;;
59115;SDS011;53564;51.930;4.640;2022-08-11T07:43:58;14.73;;;5.63;;
59115;SDS011;53564;51.930;4.640;2022-08-11T07:46:40;12.30;;;5.10;;
59115;SDS011;53564;51.930;4.640;2022-08-11T07:49:25;15.02;;;5.35;;
59115;SDS011;53564;51.930;4.640;2022-08-11T07:52:10;13.20;;;5.35;;
59115;SDS011;53564;51.930;4.640;2022-08-11T07:54:55;13.77;;;5.47;;
59115;SDS011;53564;51.930;4.640;2022-08-11T07:57:22;12.23;;;5.18;;
59115;SDS011;53564;51.930;4.640;2022-08-11T08:00:07;12.02;;;5.22;;
59115;SDS011;53564;51.930;4.640;2022-08-11T08:02:51;12.13;;;5.05;;
59115;SDS011;53564;51.930;4.640;2022-08-11T08:05:36;13.75;;;5.43;;
59115;SDS011;53564;51.930;4.640;2022-08-11T08:08:20;13.82;;;4.82;;
59115;SDS011;53564;51.930;4.640;2022-08-11T08:11:05;14.10;;;4.90;;
59115;SDS011;53564;51.930;4.640;2022-08-11T08:13:50;13.65;;;5.78;;
59115;SDS011;53564;51.930;4.640;2022-08-11T08:16:36;13.82;;;4.53;;
59115;SDS011;53564;51.930;4.640;2022-08-11T08:19:21;11.13;;;4.70;;
59115;SDS011;53564;51.930;4.640;2022-08-11T08:21:47;14.27;;;4.78;;
59115;SDS011;53564;51.930;4.640;2022-08-11T08:24:14;14.38;;;4.95;;
59115;SDS011;53564;51.930;4.640;2022-08-11T08:26:40;11.35;;;4.70;;
59115;SDS011;53564;51.930;4.640;2022-08-11T08:29:23;11.02;;;4.43;;
59115;SDS011;53564;51.930;4.640;2022-08-11T08:32:09;19.75;;;5.10;;
59115;SDS011;53564;51.930;4.640;2022-08-11T08:34:35;13.18;;;4.72;;
59115;SDS011;53564;51.930;4.640;2022-08-11T08:37:02;12.82;;;4.05;;
59115;SDS011;53564;51.930;4.640;2022-08-11T08:39:29;11.30;;;3.92;;
59115;SDS011;53564;51.930;4.640;2022-08-11T08:41:58;11.10;;;4.43;;
59115;SDS011;53564;51.930;4.640;2022-08-11T08:44:28;12.45;;;4.68;;
59115;SDS011;53564;51.930;4.640;2022-08-11T08:46:59;10.88;;;4.20;;
59115;SDS011;53564;51.930;4.640;2022-08-11T08:49:31;12.73;;;4.20;;
59115;SDS011;53564;51.930;4.640;2022-08-11T08:52:01;12.02;;;4.28;;
59115;SDS011;53564;51.930;4.640;2022-08-11T08:54:32;11.00;;;4.50;;
59115;SDS011;53564;51.930;4.640;2022-08-11T08:59:56;10.32;;;4.32;;
59115;SDS011;53564;51.930;4.640;2022-08-11T09:02:24;13.80;;;4.63;;
59115;SDS011;53564;51.930;4.640;2022-08-11T09:04:50;14.20;;;4.43;;
59115;SDS011;53564;51.930;4.640;2022-08-11T09:07:16;10.90;;;4.28;;
59115;SDS011;53564;51.930;4.640;2022-08-11T09:09:55;11.95;;;4.35;;
59115;SDS011;53564;51.930;4.640;2022-08-11T09:12:24;13.27;;;4.25;;
59115;SDS011;53564;51.930;4.640;2022-08-11T09:14:51;10.38;;;4.57;;
59115;SDS011;53564;51.930;4.640;2022-08-11T09:20:07;17.15;;;4.50;;
59115;SDS011;53564;51.930;4.640;2022-08-11T09:22:57;15.90;;;4.10;;
59115;SDS011;53564;51.930;4.640;2022-08-11T09:25:44;11.50;;;4.05;;
59115;SDS011;53564;51.930;4.640;2022-08-11T09:28:28;13.73;;;4.13;;
59115;SDS011;53564;51.930;4.640;2022-08-11T09:30:55;9.55;;;3.67;;
59115;SDS011;53564;51.930;4.640;2022-08-11T09:33:25;9.93;;;3.70;;
59115;SDS011;53564;51.930;4.640;2022-08-11T09:35:53;11.02;;;3.45;;
59115;SDS011;53564;51.930;4.640;2022-08-11T09:38:19;9.52;;;3.60;;
59115;SDS011;53564;51.930;4.640;2022-08-11T09:41:07;9.73;;;3.80;;
59115;SDS011;53564;51.930;4.640;2022-08-11T09:43:35;11.13;;;4.20;;
59115;SDS011;53564;51.930;4.640;2022-08-11T09:46:22;10.27;;;3.83;;
59115;SDS011;53564;51.930;4.640;2022-08-11T09:48:54;10.38;;;3.92;;
59115;SDS011;53564;51.930;4.640;2022-08-11T09:51:23;11.23;;;3.85;;
59115;SDS011;53564;51.930;4.640;2022-08-11T09:53:49;10.52;;;3.50;;
59115;SDS011;53564;51.930;4.640;2022-08-11T09:56:15;11.15;;;4.30;;
59115;SDS011;53564;51.930;4.640;2022-08-11T09:59:01;10.65;;;4.15;;
59115;SDS011;53564;51.930;4.640;2022-08-11T10:01:29;10.35;;;3.58;;
59115;SDS011;53564;51.930;4.640;2022-08-11T10:06:49;10.68;;;3.88;;
59115;SDS011;53564;51.930;4.640;2022-08-11T10:14:40;11.13;;;3.70;;
59115;SDS011;53564;51.930;4.640;2022-08-11T10:17:27;11.45;;;3.67;;
59115;SDS011;53564;51.930;4.640;2022-08-11T10:19:57;9.27;;;3.50;;
59115;SDS011;53564;51.930;4.640;2022-08-11T10:22:28;9.88;;;3.38;;
59115;SDS011;53564;51.930;4.640;2022-08-11T10:25:12;10.43;;;3.45;;
59115;SDS011;53564;51.930;4.640;2022-08-11T10:27:57;9.20;;;3.30;;
59115;SDS011;53564;51.930;4.640;2022-08-11T10:30:25;10.68;;;3.60;;
59115;SDS011;53564;51.930;4.640;2022-08-11T10:33:13;9.80;;;3.47;;
59115;SDS011;53564;51.930;4.640;2022-08-11T10:35:59;9.73;;;3.38;;
59115;SDS011;53564;51.930;4.640;2022-08-11T10:38:25;10.98;;;3.70;;
59115;SDS011;53564;51.930;4.640;2022-08-11T10:40:52;9.27;;;3.50;;
59115;SDS011;53564;51.930;4.640;2022-08-11T10:43:38;10.27;;;3.15;;
59115;SDS011;53564;51.930;4.640;2022-08-11T10:46:06;12.18;;;3.78;;
59115;SDS011;53564;51.930;4.640;2022-08-11T10:48:52;10.95;;;3.60;;
59115;SDS011;53564;51.930;4.640;2022-08-11T10:51:20;11.65;;;3.80;;
59115;SDS011;53564;51.930;4.640;2022-08-11T10:53:47;8.35;;;3.15;;
59115;SDS011;53564;51.930;4.640;2022-08-11T10:56:37;12.43;;;3.50;;
59115;SDS011;53564;51.930;4.640;2022-08-11T10:59:23;9.98;;;3.50;;
59115;SDS011;53564;51.930;4.640;2022-08-11T11:01:51;11.13;;;3.65;;
59115;SDS011;53564;51.930;4.640;2022-08-11T11:04:20;10.02;;;3.30;;
59115;SDS011;53564;51.930;4.640;2022-08-11T11:07:07;10.13;;;3.50;;
59115;SDS011;53564;51.930;4.640;2022-08-11T11:09:45;8.73;;;3.08;;
59115;SDS011;53564;51.930;4.640;2022-08-11T11:12:18;7.00;;;2.80;;
59115;SDS011;53564;51.930;4.640;2022-08-11T11:15:06;7.70;;;2.90;;
59115;SDS011;53564;51.930;4.640;2022-08-11T11:18:06;10.52;;;3.05;;
59115;SDS011;53564;51.930;4.640;2022-08-11T11:25:58;7.80;;;2.85;;
59115;SDS011;53564;51.930;4.640;2022-08-11T11:28:50;13.30;;;3.42;;
59115;SDS011;53564;51.930;4.640;2022-08-11T11:31:46;9.43;;;2.92;;
59115;SDS011;53564;51.930;4.640;2022-08-11T11:36:53;10.63;;;3.08;;
59115;SDS011;53564;51.930;4.640;2022-08-11T11:39:21;8.10;;;2.70;;
59115;SDS011;53564;51.930;4.640;2022-08-11T11:41:51;10.85;;;2.97;;
59115;SDS011;53564;51.930;4.640;2022-08-11T11:44:18;8.93;;;3.17;;
59115;SDS011;53564;51.930;4.640;2022-08-11T11:46:46;9.80;;;3.15;;
59115;SDS011;53564;51.930;4.640;2022-08-11T11:49:13;9.20;;;3.00;;
59115;SDS011;53564;51.930;4.640;2022-08-11T11:51:40;9.70;;;2.80;;
59115;SDS011;53564;51.930;4.640;2022-08-11T11:54:08;11.60;;;3.20;;
59115;SDS011;53564;51.930;4.640;2022-08-11T11:56:34;10.85;;;3.17;;
59115;SDS011;53564;51.930;4.640;2022-08-11T11:59:00;7.35;;;2.85;;
59115;SDS011;53564;51.930;4.640;2022-08-11T12:01:45;15.68;;;3.35;;
59115;SDS011;53564;51.930;4.640;2022-08-11T12:04:11;13.68;;;3.20;;
59115;SDS011;53564;51.930;4.640;2022-08-11T12:06:39;5.93;;;2.72;;
59115;SDS011;53564;51.930;4.640;2022-08-11T12:09:05;10.15;;;3.22;;
59115;SDS011;53564;51.930;4.640;2022-08-11T12:11:31;9.55;;;3.25;;
59115;SDS011;53564;51.930;4.640;2022-08-11T12:14:16;10.05;;;3.20;;
59115;SDS011;53564;51.930;4.640;2022-08-11T12:16:44;8.43;;;2.80;;
59115;SDS011;53564;51.930;4.640;2022-08-11T12:19:10;9.85;;;3.05;;
59115;SDS011;53564;51.930;4.640;2022-08-11T12:21:39;8.15;;;3.08;;
59115;SDS011;53564;51.930;4.640;2022-08-11T12:24:28;9.88;;;3.00;;
59115;SDS011;53564;51.930;4.640;2022-08-11T12:27:13;10.85;;;3.15;;
59115;SDS011;53564;51.930;4.640;2022-08-11T12:29:51;8.30;;;2.90;;
59115;SDS011;53564;51.930;4.640;2022-08-11T12:32:30;8.38;;;3.00;;
59115;SDS011;53564;51.930;4.640;2022-08-11T12:34:57;9.60;;;3.10;;
59115;SDS011;53564;51.930;4.640;2022-08-11T12:37:26;8.30;;;3.33;;
59115;SDS011;53564;51.930;4.640;2022-08-11T12:39:56;7.90;;;2.90;;
59115;SDS011;53564;51.930;4.640;2022-08-11T12:42:43;8.32;;;3.20;;
59115;SDS011;53564;51.930;4.640;2022-08-11T12:45:29;11.00;;;3.38;;
59115;SDS011;53564;51.930;4.640;2022-08-11T12:48:06;9.43;;;3.15;;
59115;SDS011;53564;51.930;4.640;2022-08-11T12:51:10;9.73;;;3.28;;
59115;SDS011;53564;51.930;4.640;2022-08-11T12:56:56;9.15;;;3.15;;
59115;SDS011;53564;51.930;4.640;2022-08-11T12:59:42;7.68;;;3.00;;
59115;SDS011;53564;51.930;4.640;2022-08-11T13:02:27;9.32;;;3.00;;
59115;SDS011;53564;51.930;4.640;2022-08-11T13:05:13;8.65;;;3.08;;
59115;SDS011;53564;51.930;4.640;2022-08-11T13:07:41;8.57;;;3.15;;
59115;SDS011;53564;51.930;4.640;2022-08-11T13:10:08;13.63;;;3.42;;
59115;SDS011;53564;51.930;4.640;2022-08-11T13:12:37;11.15;;;3.10;;
59115;SDS011;53564;51.930;4.640;2022-08-11T13:15:16;12.38;;;3.72;;
59115;SDS011;53564;51.930;4.640;2022-08-11T13:17:44;11.05;;;3.60;;
59115;SDS011;53564;51.930;4.640;2022-08-11T13:20:12;10.68;;;3.10;;
59115;SDS011;53564;51.930;4.640;2022-08-11T13:22:41;9.07;;;3.22;;
59115;SDS011;53564;51.930;4.640;2022-08-11T13:25:11;7.25;;;3.00;;
59115;SDS011;53564;51.930;4.640;2022-08-11T13:27:40;8.93;;;3.10;;
59115;SDS011;53564;51.930;4.640;2022-08-11T13:30:07;9.77;;;3.33;;
59115;SDS011;53564;51.930;4.640;2022-08-11T13:32:52;8.68;;;3.10;;
59115;SDS011;53564;51.930;4.640;2022-08-11T13:35:18;8.55;;;3.42;;
59115;SDS011;53564;51.930;4.640;2022-08-11T13:37:44;10.07;;;3.10;;
59115;SDS011;53564;51.930;4.640;2022-08-11T13:40:11;12.65;;;3.40;;
59115;SDS011;53564;51.930;4.640;2022-08-11T13:42:38;8.27;;;3.03;;
59115;SDS011;53564;51.930;4.640;2022-08-11T13:45:05;10.07;;;3.33;;
59115;SDS011;53564;51.930;4.640;2022-08-11T13:47:31;9.32;;;2.92;;
59115;SDS011;53564;51.930;4.640;2022-08-11T13:49:58;10.90;;;3.40;;
59115;SDS011;53564;51.930;4.640;2022-08-11T13:52:25;9.20;;;3.30;;
59115;SDS011;53564;51.930;4.640;2022-08-11T13:54:52;8.57;;;3.00;;
59115;SDS011;53564;51.930;4.640;2022-08-11T13:57:18;9.80;;;3.35;;
59115;SDS011;53564;51.930;4.640;2022-08-11T13:59:51;8.45;;;3.08;;
59115;SDS011;53564;51.930;4.640;2022-08-11T14:02:26;6.97;;;2.97;;
59115;SDS011;53564;51.930;4.640;2022-08-11T14:05:14;10.35;;;3.50;;
59115;SDS011;53564;51.930;4.640;2022-08-11T14:07:48;9.85;;;3.30;;
59115;SDS011;53564;51.930;4.640;2022-08-11T14:10:16;9.23;;;3.35;;
59115;SDS011;53564;51.930;4.640;2022-08-11T14:12:46;7.20;;;3.08;;
59115;SDS011;53564;51.930;4.640;2022-08-11T14:15:37;11.23;;;3.53;;
59115;SDS011;53564;51.930;4.640;2022-08-11T14:18:07;10.77;;;3.33;;
59115;SDS011;53564;51.930;4.640;2022-08-11T14:20:38;10.27;;;3.07;;
59115;SDS011;53564;51.930;4.640;2022-08-11T14:23:30;8.63;;;3.15;;
59115;SDS011;53564;51.930;4.640;2022-08-11T14:26:01;10.75;;;3.38;;
59115;SDS011;53564;51.930;4.640;2022-08-11T14:28:45;9.38;;;3.00;;
59115;SDS011;53564;51.930;4.640;2022-08-11T14:31:12;8.85;;;3.30;;
59115;SDS011;53564;51.930;4.640;2022-08-11T14:33:39;11.18;;;3.20;;
59115;SDS011;53564;51.930;4.640;2022-08-11T14:36:05;7.95;;;3.00;;
59115;SDS011;53564;51.930;4.640;2022-08-11T14:38:33;8.57;;;3.22;;
59115;SDS011;53564;51.930;4.640;2022-08-11T14:41:00;10.35;;;3.40;;
59115;SDS011;53564;51.930;4.640;2022-08-11T14:43:45;8.15;;;3.60;;
59115;SDS011;53564;51.930;4.640;2022-08-11T14:46:33;9.82;;;3.10;;
59115;SDS011;53564;51.930;4.640;2022-08-11T14:49:18;7.40;;;3.08;;
59115;SDS011;53564;51.930;4.640;2022-08-11T14:51:44;9.70;;;3.20;;
59115;SDS011;53564;51.930;4.640;2022-08-11T14:54:12;12.48;;;3.13;;
59115;SDS011;53564;51.930;4.640;2022-08-11T14:56:57;8.60;;;3.30;;
59115;SDS011;53564;51.930;4.640;2022-08-11T14:59:23;7.82;;;2.95;;
59115;SDS011;53564;51.930;4.640;2022-08-11T15:01:49;8.45;;;3.10;;
59115;SDS011;53564;51.930;4.640;2022-08-11T15:04:36;9.48;;;3.10;;
59115;SDS011;53564;51.930;4.640;2022-08-11T15:07:03;10.48;;;3.30;;
59115;SDS011;53564;51.930;4.640;2022-08-11T15:09:29;11.38;;;3.13;;
59115;SDS011;53564;51.930;4.640;2022-08-11T15:11:55;9.77;;;3.20;;
59115;SDS011;53564;51.930;4.640;2022-08-11T15:14:33;9.77;;;3.20;;
59115;SDS011;53564;51.930;4.640;2022-08-11T15:17:18;11.88;;;3.22;;
59115;SDS011;53564;51.930;4.640;2022-08-11T15:19:46;8.98;;;3.20;;
59115;SDS011;53564;51.930;4.640;2022-08-11T15:22:32;11.05;;;3.75;;
59115;SDS011;53564;51.930;4.640;2022-08-11T15:25:16;9.60;;;3.40;;
59115;SDS011;53564;51.930;4.640;2022-08-11T15:27:44;7.88;;;2.95;;
59115;SDS011;53564;51.930;4.640;2022-08-11T15:30:30;8.88;;;3.17;;
59115;SDS011;53564;51.930;4.640;2022-08-11T15:33:15;9.95;;;2.90;;
59115;SDS011;53564;51.930;4.640;2022-08-11T15:36:02;10.15;;;3.47;;
59115;SDS011;53564;51.930;4.640;2022-08-11T15:38:58;8.48;;;2.92;;
59115;SDS011;53564;51.930;4.640;2022-08-11T15:41:42;7.40;;;2.80;;
59115;SDS011;53564;51.930;4.640;2022-08-11T15:44:32;8.93;;;3.08;;
59115;SDS011;53564;51.930;4.640;2022-08-11T15:47:21;8.60;;;3.00;;
59115;SDS011;53564;51.930;4.640;2022-08-11T15:49:50;8.55;;;3.00;;
59115;SDS011;53564;51.930;4.640;2022-08-11T15:52:20;7.38;;;2.88;;
59115;SDS011;53564;51.930;4.640;2022-08-11T15:54:49;8.77;;;3.13;;
59115;SDS011;53564;51.930;4.640;2022-08-11T15:57:16;9.68;;;3.20;;
59115;SDS011;53564;51.930;4.640;2022-08-11T16:00:02;8.48;;;2.80;;
59115;SDS011;53564;51.930;4.640;2022-08-11T16:02:48;11.43;;;2.90;;
59115;SDS011;53564;51.930;4.640;2022-08-11T16:05:21;9.20;;;2.75;;
59115;SDS011;53564;51.930;4.640;2022-08-11T16:07:48;10.43;;;2.78;;
59115;SDS011;53564;51.930;4.640;2022-08-11T16:10:16;8.48;;;3.00;;
59115;SDS011;53564;51.930;4.640;2022-08-11T16:12:51;7.22;;;3.03;;
59115;SDS011;53564;51.930;4.640;2022-08-11T16:15:30;10.68;;;3.33;;
59115;SDS011;53564;51.930;4.640;2022-08-11T16:18:18;9.60;;;2.92;;
59115;SDS011;53564;51.930;4.640;2022-08-11T16:20:45;7.75;;;2.78;;
59115;SDS011;53564;51.930;4.640;2022-08-11T16:23:14;8.13;;;2.83;;
59115;SDS011;53564;51.930;4.640;2022-08-11T16:25:42;11.77;;;4.10;;
59115;SDS011;53564;51.930;4.640;2022-08-11T16:28:11;10.00;;;3.78;;
59115;SDS011;53564;51.930;4.640;2022-08-11T16:30:38;14.52;;;5.82;;
59115;SDS011;53564;51.930;4.640;2022-08-11T16:33:05;10.68;;;3.42;;
59115;SDS011;53564;51.930;4.640;2022-08-11T16:35:32;8.40;;;2.90;;
59115;SDS011;53564;51.930;4.640;2022-08-11T16:38:19;10.02;;;3.08;;
59115;SDS011;53564;51.930;4.640;2022-08-11T16:40:59;9.02;;;2.70;;
59115;SDS011;53564;51.930;4.640;2022-08-11T16:43:34;8.55;;;2.95;;
59115;SDS011;53564;51.930;4.640;2022-08-11T16:46:26;11.27;;;3.10;;
59115;SDS011;53564;51.930;4.640;2022-08-11T16:49:14;8.45;;;2.78;;
59115;SDS011;53564;51.930;4.640;2022-08-11T16:51:43;8.30;;;2.80;;
59115;SDS011;53564;51.930;4.640;2022-08-11T16:54:09;8.10;;;2.80;;
59115;SDS011;53564;51.930;4.640;2022-08-11T16:56:37;6.80;;;2.63;;
59115;SDS011;53564;51.930;4.640;2022-08-11T16:59:21;10.15;;;3.08;;
59115;SDS011;53564;51.930;4.640;2022-08-11T17:01:53;7.72;;;2.65;;
59115;SDS011;53564;51.930;4.640;2022-08-11T17:04:38;9.23;;;2.75;;
59115;SDS011;53564;51.930;4.640;2022-08-11T17:07:28;8.07;;;2.90;;
59115;SDS011;53564;51.930;4.640;2022-08-11T17:10:17;6.70;;;2.80;;
59115;SDS011;53564;51.930;4.640;2022-08-11T17:13:04;9.77;;;3.20;;
59115;SDS011;53564;51.930;4.640;2022-08-11T17:15:35;9.20;;;2.90;;
59115;SDS011;53564;51.930;4.640;2022-08-11T17:18:20;9.00;;;3.08;;
59115;SDS011;53564;51.930;4.640;2022-08-11T17:21:08;10.13;;;2.80;;
59115;SDS011;53564;51.930;4.640;2022-08-11T17:23:42;8.30;;;2.95;;
59115;SDS011;53564;51.930;4.640;2022-08-11T17:26:12;8.68;;;2.78;;
59115;SDS011;53564;51.930;4.640;2022-08-11T17:28:40;7.07;;;2.70;;
59115;SDS011;53564;51.930;4.640;2022-08-11T17:31:07;10.75;;;2.90;;
59115;SDS011;53564;51.930;4.640;2022-08-11T17:33:54;9.45;;;2.90;;
59115;SDS011;53564;51.930;4.640;2022-08-11T17:36:40;8.15;;;3.33;;
59115;SDS011;53564;51.930;4.640;2022-08-11T17:39:08;7.70;;;2.78;;
59115;SDS011;53564;51.930;4.640;2022-08-11T17:41:35;8.68;;;3.03;;
59115;SDS011;53564;51.930;4.640;2022-08-11T17:44:21;8.68;;;2.90;;
59115;SDS011;53564;51.930;4.640;2022-08-11T17:47:06;8.25;;;2.92;;
59115;SDS011;53564;51.930;4.640;2022-08-11T17:49:58;10.18;;;3.00;;
59115;SDS011;53564;51.930;4.640;2022-08-11T17:52:27;9.60;;;3.10;;
59115;SDS011;53564;51.930;4.640;2022-08-11T17:55:11;11.30;;;2.95;;
59115;SDS011;53564;51.930;4.640;2022-08-11T17:57:57;9.48;;;2.97;;
59115;SDS011;53564;51.930;4.640;2022-08-11T18:00:42;9.65;;;3.25;;
59115;SDS011;53564;51.930;4.640;2022-08-11T18:03:08;8.35;;;2.95;;
59115;SDS011;53564;51.930;4.640;2022-08-11T18:05:53;9.90;;;3.17;;
59115;SDS011;53564;51.930;4.640;2022-08-11T18:08:20;7.82;;;2.50;;
59115;SDS011;53564;51.930;4.640;2022-08-11T18:11:05;8.75;;;2.80;;
59115;SDS011;53564;51.930;4.640;2022-08-11T18:13:51;7.88;;;2.83;;
59115;SDS011;53564;51.930;4.640;2022-08-11T18:16:36;8.75;;;2.70;;
59115;SDS011;53564;51.930;4.640;2022-08-11T18:19:19;7.57;;;2.85;;
59115;SDS011;53564;51.930;4.640;2022-08-11T18:22:07;7.25;;;2.67;;
59115;SDS011;53564;51.930;4.640;2022-08-11T18:24:57;8.50;;;3.03;;
59115;SDS011;53564;51.930;4.640;2022-08-11T18:27:45;9.40;;;2.90;;
59115;SDS011;53564;51.930;4.640;2022-08-11T18:30:34;9.70;;;2.80;;
59115;SDS011;53564;51.930;4.640;2022-08-11T18:33:21;8.70;;;3.00;;
59115;SDS011;53564;51.930;4.640;2022-08-11T18:36:10;8.52;;;2.60;;
59115;SDS011;53564;51.930;4.640;2022-08-11T18:38:57;7.15;;;2.70;;
59115;SDS011;53564;51.930;4.640;2022-08-11T18:41:43;7.30;;;2.72;;
59115;SDS011;53564;51.930;4.640;2022-08-11T18:44:29;7.10;;;2.70;;
59115;SDS011;53564;51.930;4.640;2022-08-11T18:47:15;8.35;;;2.90;;
59115;SDS011;53564;51.930;4.640;2022-08-11T18:50:03;8.23;;;2.90;;
59115;SDS011;53564;51.930;4.640;2022-08-11T18:52:52;8.50;;;2.70;;
59115;SDS011;53564;51.930;4.640;2022-08-11T18:55:37;8.85;;;3.00;;
59115;SDS011;53564;51.930;4.640;2022-08-11T18:58:27;10.88;;;3.05;;
59115;SDS011;53564;51.930;4.640;2022-08-11T19:01:14;9.20;;;2.88;;
59115;SDS011;53564;51.930;4.640;2022-08-11T19:04:03;7.25;;;2.80;;